sensor_id;sensor_type;location;lat;lon;timestamp;pressure;altitude;pressure_sealevel;temperature;humidity
60611;BME280;46439;51.164;13.572;2022-09-12T00:01:23;100222.11;;;17.53;87.27
60611;BME280;46439;51.164;13.572;2022-09-12T00:03:54;100220.14;;;17.52;87.12
60611;BME280;46439;51.164;13.572;2022-09-12T00:06:25;100218.89;;;17.52;87.16
60611;BME280;46439;51.164;13.572;2022-09-12T00:08:57;100215.20;;;17.51;87.03
60611;BME280;46439;51.164;13.572;2022-09-12T00:11:26;100214.07;;;17.49;87.02
60611;BME280;46439;51.164;13.572;2022-09-12T00:14:00;100216.47;;;17.48;87.02
60611;BME280;46439;51.164;13.572;2022-09-12T00:16:31;100219.63;;;17.48;87.07
60611;BME280;46439;51.164;13.572;2022-09-12T00:19:01;100216.15;;;17.45;87.07
60611;BME280;46439;51.164;13.572;2022-09-12T00:21:30;100215.31;;;17.42;87.06
60611;BME280;46439;51.164;13.572;2022-09-12T00:23:59;100216.13;;;17.40;87.07
60611;BME280;46439;51.164;13.572;2022-09-12T00:26:27;100216.61;;;17.38;87.11
60611;BME280;46439;51.164;13.572;2022-09-12T00:28:58;100217.58;;;17.36;87.08
60611;BME280;46439;51.164;13.572;2022-09-12T00:31:27;100219.60;;;17.35;87.01
60611;BME280;46439;51.164;13.572;2022-09-12T00:33:57;100219.05;;;17.32;86.94
60611;BME280;46439;51.164;13.572;2022-09-12T00:36:26;100213.54;;;17.29;86.90
60611;BME280;46439;51.164;13.572;2022-09-12T00:38:55;100212.63;;;17.25;86.78
60611;BME280;46439;51.164;13.572;2022-09-12T00:41:26;100212.32;;;17.21;86.73
60611;BME280;46439;51.164;13.572;2022-09-12T00:43:57;100212.53;;;17.18;86.77
60611;BME280;46439;51.164;13.572;2022-09-12T00:46:33;100209.98;;;17.14;86.62
60611;BME280;46439;51.164;13.572;2022-09-12T00:49:09;100208.63;;;17.07;86.54
60611;BME280;46439;51.164;13.572;2022-09-12T00:51:43;100204.38;;;16.98;86.31
60611;BME280;46439;51.164;13.572;2022-09-12T00:54:15;100203.64;;;16.93;86.16
60611;BME280;46439;51.164;13.572;2022-09-12T00:56:46;100202.69;;;16.88;86.27
60611;BME280;46439;51.164;13.572;2022-09-12T00:59:16;100204.17;;;16.84;86.25
60611;BME280;46439;51.164;13.572;2022-09-12T01:01:48;100199.81;;;16.78;86.14
60611;BME280;46439;51.164;13.572;2022-09-12T01:04:19;100196.59;;;16.78;86.39
60611;BME280;46439;51.164;13.572;2022-09-12T01:06:49;100194.76;;;16.78;86.53
60611;BME280;46439;51.164;13.572;2022-09-12T01:09:20;100194.59;;;16.78;86.60
60611;BME280;46439;51.164;13.572;2022-09-12T01:11:49;100192.16;;;16.76;86.71
60611;BME280;46439;51.164;13.572;2022-09-12T01:14:19;100195.19;;;16.71;86.47
60611;BME280;46439;51.164;13.572;2022-09-12T01:16:49;100192.13;;;16.67;86.47
60611;BME280;46439;51.164;13.572;2022-09-12T01:19:33;100198.02;;;16.65;86.44
60611;BME280;46439;51.164;13.572;2022-09-12T01:22:15;100196.46;;;16.61;86.38
60611;BME280;46439;51.164;13.572;2022-09-12T01:25:08;100196.94;;;16.59;86.51
60611;BME280;46439;51.164;13.572;2022-09-12T01:27:49;100196.64;;;16.57;86.33
60611;BME280;46439;51.164;13.572;2022-09-12T01:30:40;100200.41;;;16.57;86.59
60611;BME280;46439;51.164;13.572;2022-09-12T01:36:16;100191.88;;;16.49;86.42
60611;BME280;46439;51.164;13.572;2022-09-12T01:38:57;100197.83;;;16.45;86.22
60611;BME280;46439;51.164;13.572;2022-09-12T01:41:29;100196.95;;;16.45;86.42
60611;BME280;46439;51.164;13.572;2022-09-12T01:44:03;100189.74;;;16.47;86.55
60611;BME280;46439;51.164;13.572;2022-09-12T01:46:44;100191.41;;;16.49;86.77
60611;BME280;46439;51.164;13.572;2022-09-12T01:49:16;100184.83;;;16.49;86.88
60611;BME280;46439;51.164;13.572;2022-09-12T01:51:55;100182.73;;;16.49;86.84
60611;BME280;46439;51.164;13.572;2022-09-12T01:54:28;100183.77;;;16.50;87.01
60611;BME280;46439;51.164;13.572;2022-09-12T01:57:02;100189.52;;;16.51;86.98
60611;BME280;46439;51.164;13.572;2022-09-12T01:59:36;100187.39;;;16.54;87.25
60611;BME280;46439;51.164;13.572;2022-09-12T02:02:10;100187.42;;;16.54;87.11
60611;BME280;46439;51.164;13.572;2022-09-12T02:04:43;100182.34;;;16.56;87.28
60611;BME280;46439;51.164;13.572;2022-09-12T02:07:17;100180.38;;;16.59;87.37
60611;BME280;46439;51.164;13.572;2022-09-12T02:09:49;100178.36;;;16.60;87.38
60611;BME280;46439;51.164;13.572;2022-09-12T02:12:25;100177.55;;;16.62;87.55
60611;BME280;46439;51.164;13.572;2022-09-12T02:14:58;100172.54;;;16.60;87.39
60611;BME280;46439;51.164;13.572;2022-09-12T02:17:30;100174.04;;;16.57;87.11
60611;BME280;46439;51.164;13.572;2022-09-12T02:20:07;100174.92;;;16.53;87.06
60611;BME280;46439;51.164;13.572;2022-09-12T02:22:38;100174.98;;;16.53;87.08
60611;BME280;46439;51.164;13.572;2022-09-12T02:25:10;100176.73;;;16.55;87.30
60611;BME280;46439;51.164;13.572;2022-09-12T02:27:41;100167.90;;;16.52;87.16
60611;BME280;46439;51.164;13.572;2022-09-12T02:30:13;100168.25;;;16.43;87.03
60611;BME280;46439;51.164;13.572;2022-09-12T02:32:53;100169.45;;;16.39;86.77
60611;BME280;46439;51.164;13.572;2022-09-12T02:35:32;100163.42;;;16.41;86.87
60611;BME280;46439;51.164;13.572;2022-09-12T02:38:06;100159.02;;;16.45;87.12
60611;BME280;46439;51.164;13.572;2022-09-12T02:40:37;100162.48;;;16.49;87.46
60611;BME280;46439;51.164;13.572;2022-09-12T02:43:06;100159.46;;;16.50;87.25
60611;BME280;46439;51.164;13.572;2022-09-12T02:45:35;100155.90;;;16.48;87.25
60611;BME280;46439;51.164;13.572;2022-09-12T02:48:07;100156.83;;;16.50;87.33
60611;BME280;46439;51.164;13.572;2022-09-12T02:50:37;100159.09;;;16.54;87.46
60611;BME280;46439;51.164;13.572;2022-09-12T02:53:07;100157.83;;;16.57;87.48
60611;BME280;46439;51.164;13.572;2022-09-12T02:55:39;100164.23;;;16.59;87.62
60611;BME280;46439;51.164;13.572;2022-09-12T02:58:12;100162.30;;;16.59;87.63
60611;BME280;46439;51.164;13.572;2022-09-12T03:00:46;100166.16;;;16.60;87.76
60611;BME280;46439;51.164;13.572;2022-09-12T03:03:29;100168.37;;;16.61;87.77
60611;BME280;46439;51.164;13.572;2022-09-12T03:06:09;100172.53;;;16.61;87.75
60611;BME280;46439;51.164;13.572;2022-09-12T03:08:59;100169.78;;;16.63;87.89
60611;BME280;46439;51.164;13.572;2022-09-12T03:11:48;100166.48;;;16.62;87.73
60611;BME280;46439;51.164;13.572;2022-09-12T03:14:30;100168.88;;;16.62;87.79
60611;BME280;46439;51.164;13.572;2022-09-12T03:17:06;100165.33;;;16.61;87.79
60611;BME280;46439;51.164;13.572;2022-09-12T03:19:47;100166.11;;;16.61;87.87
60611;BME280;46439;51.164;13.572;2022-09-12T03:22:22;100166.83;;;16.61;87.87
60611;BME280;46439;51.164;13.572;2022-09-12T03:24:59;100166.29;;;16.61;87.93
60611;BME280;46439;51.164;13.572;2022-09-12T03:27:34;100161.08;;;16.62;88.00
60611;BME280;46439;51.164;13.572;2022-09-12T03:30:05;100168.20;;;16.64;88.23
60611;BME280;46439;51.164;13.572;2022-09-12T03:32:42;100167.11;;;16.64;88.22
60611;BME280;46439;51.164;13.572;2022-09-12T03:35:12;100165.39;;;16.61;88.10
60611;BME280;46439;51.164;13.572;2022-09-12T03:37:41;100164.53;;;16.59;88.03
60611;BME280;46439;51.164;13.572;2022-09-12T03:40:11;100166.00;;;16.58;88.10
60611;BME280;46439;51.164;13.572;2022-09-12T03:42:40;100165.02;;;16.57;88.16
60611;BME280;46439;51.164;13.572;2022-09-12T03:45:10;100165.23;;;16.55;88.13
60611;BME280;46439;51.164;13.572;2022-09-12T03:47:38;100164.91;;;16.55;88.18
60611;BME280;46439;51.164;13.572;2022-09-12T03:50:07;100159.17;;;16.56;88.14
60611;BME280;46439;51.164;13.572;2022-09-12T03:52:36;100159.84;;;16.58;88.16
60611;BME280;46439;51.164;13.572;2022-09-12T03:55:06;100160.29;;;16.57;88.31
60611;BME280;46439;51.164;13.572;2022-09-12T03:57:34;100163.44;;;16.57;88.32
60611;BME280;46439;51.164;13.572;2022-09-12T04:00:05;100166.54;;;16.55;88.10
60611;BME280;46439;51.164;13.572;2022-09-12T04:02:34;100170.28;;;16.54;88.13
60611;BME280;46439;51.164;13.572;2022-09-12T04:05:03;100165.97;;;16.54;88.14
60611;BME280;46439;51.164;13.572;2022-09-12T04:07:32;100169.14;;;16.53;88.30
60611;BME280;46439;51.164;13.572;2022-09-12T04:10:00;100166.22;;;16.52;88.27
60611;BME280;46439;51.164;13.572;2022-09-12T04:12:29;100168.73;;;16.49;88.17
60611;BME280;46439;51.164;13.572;2022-09-12T04:14:57;100169.87;;;16.48;88.15
60611;BME280;46439;51.164;13.572;2022-09-12T04:17:26;100170.91;;;16.47;88.12
60611;BME280;46439;51.164;13.572;2022-09-12T04:19:54;100173.23;;;16.46;88.23
60611;BME280;46439;51.164;13.572;2022-09-12T04:22:22;100171.17;;;16.47;88.14
60611;BME280;46439;51.164;13.572;2022-09-12T04:24:51;100173.70;;;16.44;88.18
60611;BME280;46439;51.164;13.572;2022-09-12T04:27:19;100173.45;;;16.42;88.14
60611;BME280;46439;51.164;13.572;2022-09-12T04:29:47;100176.16;;;16.41;88.21
60611;BME280;46439;51.164;13.572;2022-09-12T04:32:15;100175.95;;;16.34;88.04
60611;BME280;46439;51.164;13.572;2022-09-12T04:34:44;100179.75;;;16.29;87.84
60611;BME280;46439;51.164;13.572;2022-09-12T04:37:14;100179.83;;;16.26;87.90
60611;BME280;46439;51.164;13.572;2022-09-12T04:39:44;100180.08;;;16.25;87.91
60611;BME280;46439;51.164;13.572;2022-09-12T04:42:12;100186.13;;;16.25;88.13
60611;BME280;46439;51.164;13.572;2022-09-12T04:44:40;100191.23;;;16.25;87.98
60611;BME280;46439;51.164;13.572;2022-09-12T04:47:08;100194.91;;;16.24;88.06
60611;BME280;46439;51.164;13.572;2022-09-12T04:49:37;100191.52;;;16.24;88.09
60611;BME280;46439;51.164;13.572;2022-09-12T04:52:08;100193.24;;;16.25;88.25
60611;BME280;46439;51.164;13.572;2022-09-12T04:54:37;100196.84;;;16.22;88.22
60611;BME280;46439;51.164;13.572;2022-09-12T04:57:05;100197.34;;;16.14;87.97
60611;BME280;46439;51.164;13.572;2022-09-12T04:59:34;100196.80;;;16.10;87.76
60611;BME280;46439;51.164;13.572;2022-09-12T05:02:03;100199.40;;;16.10;88.00
60611;BME280;46439;51.164;13.572;2022-09-12T05:04:31;100198.09;;;16.09;88.01
60611;BME280;46439;51.164;13.572;2022-09-12T05:06:59;100194.36;;;16.09;87.99
60611;BME280;46439;51.164;13.572;2022-09-12T05:09:28;100194.95;;;16.12;88.02
60611;BME280;46439;51.164;13.572;2022-09-12T05:11:56;100192.99;;;16.14;88.29
60611;BME280;46439;51.164;13.572;2022-09-12T05:14:24;100194.83;;;16.17;88.32
60611;BME280;46439;51.164;13.572;2022-09-12T05:16:53;100198.39;;;16.21;88.40
60611;BME280;46439;51.164;13.572;2022-09-12T05:19:23;100196.98;;;16.25;88.69
60611;BME280;46439;51.164;13.572;2022-09-12T05:21:51;100196.42;;;16.28;88.95
60611;BME280;46439;51.164;13.572;2022-09-12T05:24:20;100198.39;;;16.29;88.82
60611;BME280;46439;51.164;13.572;2022-09-12T05:26:48;100199.10;;;16.31;88.82
60611;BME280;46439;51.164;13.572;2022-09-12T05:29:17;100202.71;;;16.32;88.85
60611;BME280;46439;51.164;13.572;2022-09-12T05:31:48;100205.94;;;16.31;88.85
60611;BME280;46439;51.164;13.572;2022-09-12T05:34:19;100206.52;;;16.28;88.84
60611;BME280;46439;51.164;13.572;2022-09-12T05:36:48;100209.84;;;16.27;88.67
60611;BME280;46439;51.164;13.572;2022-09-12T05:39:16;100217.51;;;16.25;88.66
60611;BME280;46439;51.164;13.572;2022-09-12T05:41:45;100219.89;;;16.23;88.54
60611;BME280;46439;51.164;13.572;2022-09-12T05:44:15;100222.48;;;16.22;88.47
60611;BME280;46439;51.164;13.572;2022-09-12T05:46:47;100220.89;;;16.17;88.35
60611;BME280;46439;51.164;13.572;2022-09-12T05:49:18;100219.77;;;16.15;88.25
60611;BME280;46439;51.164;13.572;2022-09-12T05:51:48;100222.20;;;16.12;88.29
60611;BME280;46439;51.164;13.572;2022-09-12T05:54:19;100226.95;;;16.03;88.15
60611;BME280;46439;51.164;13.572;2022-09-12T05:56:49;100226.58;;;15.98;88.02
60611;BME280;46439;51.164;13.572;2022-09-12T05:59:19;100223.65;;;16.01;88.11
60611;BME280;46439;51.164;13.572;2022-09-12T06:01:48;100228.44;;;16.06;88.36
60611;BME280;46439;51.164;13.572;2022-09-12T06:04:17;100224.70;;;16.08;88.60
60611;BME280;46439;51.164;13.572;2022-09-12T06:06:46;100230.58;;;16.12;88.57
60611;BME280;46439;51.164;13.572;2022-09-12T06:09:16;100225.11;;;16.13;88.65
60611;BME280;46439;51.164;13.572;2022-09-12T06:11:45;100225.62;;;16.13;88.66
60611;BME280;46439;51.164;13.572;2022-09-12T06:14:15;100226.00;;;16.13;88.55
60611;BME280;46439;51.164;13.572;2022-09-12T06:16:44;100234.13;;;16.15;88.58
60611;BME280;46439;51.164;13.572;2022-09-12T06:19:16;100233.25;;;16.16;88.57
60611;BME280;46439;51.164;13.572;2022-09-12T06:21:46;100235.83;;;16.19;88.63
60611;BME280;46439;51.164;13.572;2022-09-12T06:24:16;100236.29;;;16.19;88.66
60611;BME280;46439;51.164;13.572;2022-09-12T06:26:45;100237.16;;;16.24;88.69
60611;BME280;46439;51.164;13.572;2022-09-12T06:29:14;100233.52;;;16.33;89.03
60611;BME280;46439;51.164;13.572;2022-09-12T06:31:44;100235.94;;;16.35;89.19
60611;BME280;46439;51.164;13.572;2022-09-12T06:34:14;100238.67;;;16.37;89.05
60611;BME280;46439;51.164;13.572;2022-09-12T06:36:44;100238.96;;;16.38;89.00
60611;BME280;46439;51.164;13.572;2022-09-12T06:39:14;100239.09;;;16.44;89.05
60611;BME280;46439;51.164;13.572;2022-09-12T06:41:44;100238.04;;;16.46;89.07
60611;BME280;46439;51.164;13.572;2022-09-12T06:44:14;100243.95;;;16.47;89.02
60611;BME280;46439;51.164;13.572;2022-09-12T06:46:43;100241.43;;;16.43;88.79
60611;BME280;46439;51.164;13.572;2022-09-12T06:49:11;100247.48;;;16.47;88.83
60611;BME280;46439;51.164;13.572;2022-09-12T06:51:40;100247.17;;;16.48;88.96
60611;BME280;46439;51.164;13.572;2022-09-12T06:54:14;100250.02;;;16.46;89.08
60611;BME280;46439;51.164;13.572;2022-09-12T06:56:44;100252.28;;;16.44;88.90
60611;BME280;46439;51.164;13.572;2022-09-12T06:59:13;100255.17;;;16.44;88.78
60611;BME280;46439;51.164;13.572;2022-09-12T07:01:41;100253.70;;;16.46;88.87
60611;BME280;46439;51.164;13.572;2022-09-12T07:04:10;100255.93;;;16.48;89.00
60611;BME280;46439;51.164;13.572;2022-09-12T07:06:40;100258.98;;;16.50;88.96
60611;BME280;46439;51.164;13.572;2022-09-12T07:09:11;100259.75;;;16.48;89.00
60611;BME280;46439;51.164;13.572;2022-09-12T07:11:41;100258.49;;;16.49;88.84
60611;BME280;46439;51.164;13.572;2022-09-12T07:14:12;100257.20;;;16.54;88.98
60611;BME280;46439;51.164;13.572;2022-09-12T07:16:41;100257.68;;;16.57;88.96
60611;BME280;46439;51.164;13.572;2022-09-12T07:19:10;100257.60;;;16.57;89.11
60611;BME280;46439;51.164;13.572;2022-09-12T07:21:39;100265.61;;;16.57;89.09
60611;BME280;46439;51.164;13.572;2022-09-12T07:24:09;100262.98;;;16.57;88.97
60611;BME280;46439;51.164;13.572;2022-09-12T07:26:38;100268.14;;;16.53;88.85
60611;BME280;46439;51.164;13.572;2022-09-12T07:29:08;100267.58;;;16.49;88.69
60611;BME280;46439;51.164;13.572;2022-09-12T07:31:40;100270.86;;;16.52;88.71
60611;BME280;46439;51.164;13.572;2022-09-12T07:34:08;100273.37;;;16.53;88.78
60611;BME280;46439;51.164;13.572;2022-09-12T07:36:37;100273.42;;;16.57;88.89
60611;BME280;46439;51.164;13.572;2022-09-12T07:39:08;100268.13;;;16.60;88.88
60611;BME280;46439;51.164;13.572;2022-09-12T07:41:37;100267.63;;;16.61;88.89
60611;BME280;46439;51.164;13.572;2022-09-12T07:44:06;100266.91;;;16.65;88.96
60611;BME280;46439;51.164;13.572;2022-09-12T07:46:35;100266.36;;;16.70;89.17
60611;BME280;46439;51.164;13.572;2022-09-12T07:49:03;100263.16;;;16.76;89.23
60611;BME280;46439;51.164;13.572;2022-09-12T07:51:32;100258.73;;;16.85;89.45
60611;BME280;46439;51.164;13.572;2022-09-12T07:54:00;100262.50;;;16.92;89.49
60611;BME280;46439;51.164;13.572;2022-09-12T07:56:29;100262.84;;;16.91;89.33
60611;BME280;46439;51.164;13.572;2022-09-12T07:58:58;100265.90;;;16.91;89.09
60611;BME280;46439;51.164;13.572;2022-09-12T08:01:26;100263.96;;;16.93;89.09
60611;BME280;46439;51.164;13.572;2022-09-12T08:03:56;100265.27;;;16.93;88.97
60611;BME280;46439;51.164;13.572;2022-09-12T08:06:26;100263.49;;;16.97;89.05
60611;BME280;46439;51.164;13.572;2022-09-12T08:08:56;100259.77;;;17.04;89.27
60611;BME280;46439;51.164;13.572;2022-09-12T08:11:26;100258.89;;;17.12;89.48
60611;BME280;46439;51.164;13.572;2022-09-12T08:13:56;100261.73;;;17.16;89.73
60611;BME280;46439;51.164;13.572;2022-09-12T08:16:26;100262.20;;;17.14;89.43
60611;BME280;46439;51.164;13.572;2022-09-12T08:18:58;100262.42;;;17.21;89.54
60611;BME280;46439;51.164;13.572;2022-09-12T08:21:29;100261.58;;;17.34;89.79
60611;BME280;46439;51.164;13.572;2022-09-12T08:24:00;100264.86;;;17.43;89.99
60611;BME280;46439;51.164;13.572;2022-09-12T08:26:29;100266.16;;;17.53;90.04
60611;BME280;46439;51.164;13.572;2022-09-12T08:28:58;100266.00;;;17.60;90.16
60611;BME280;46439;51.164;13.572;2022-09-12T08:31:27;100267.12;;;17.63;90.14
60611;BME280;46439;51.164;13.572;2022-09-12T08:33:57;100263.52;;;17.72;90.15
60611;BME280;46439;51.164;13.572;2022-09-12T08:36:26;100264.72;;;17.84;90.29
60611;BME280;46439;51.164;13.572;2022-09-12T08:38:57;100263.08;;;17.95;90.60
60611;BME280;46439;51.164;13.572;2022-09-12T08:41:30;100264.63;;;18.01;90.50
60611;BME280;46439;51.164;13.572;2022-09-12T08:44:17;100265.00;;;17.98;90.32
60611;BME280;46439;51.164;13.572;2022-09-12T08:47:04;100264.26;;;17.94;89.96
60611;BME280;46439;51.164;13.572;2022-09-12T08:49:40;100269.87;;;17.90;89.90
60611;BME280;46439;51.164;13.572;2022-09-12T08:52:18;100275.52;;;17.94;89.85
60611;BME280;46439;51.164;13.572;2022-09-12T08:54:49;100270.96;;;18.03;90.01
60611;BME280;46439;51.164;13.572;2022-09-12T08:57:18;100272.31;;;18.14;90.26
60611;BME280;46439;51.164;13.572;2022-09-12T08:59:46;100267.66;;;18.25;90.34
60611;BME280;46439;51.164;13.572;2022-09-12T09:05:18;100261.07;;;18.45;90.74
60611;BME280;46439;51.164;13.572;2022-09-12T09:10:48;100256.23;;;18.60;90.85
60611;BME280;46439;51.164;13.572;2022-09-12T09:13:28;100259.93;;;18.59;90.76
60611;BME280;46439;51.164;13.572;2022-09-12T09:16:23;100259.29;;;18.56;90.55
60611;BME280;46439;51.164;13.572;2022-09-12T09:18:54;100259.60;;;18.59;90.48
60611;BME280;46439;51.164;13.572;2022-09-12T09:21:28;100257.77;;;18.58;90.25
60611;BME280;46439;51.164;13.572;2022-09-12T09:24:02;100258.16;;;18.65;90.33
60611;BME280;46439;51.164;13.572;2022-09-12T09:26:40;100252.65;;;18.73;90.50
60611;BME280;46439;51.164;13.572;2022-09-12T09:29:15;100251.44;;;18.77;90.45
60611;BME280;46439;51.164;13.572;2022-09-12T09:31:47;100248.40;;;18.78;90.39
60611;BME280;46439;51.164;13.572;2022-09-12T09:34:19;100251.05;;;18.80;90.24
60611;BME280;46439;51.164;13.572;2022-09-12T09:36:51;100252.39;;;18.80;90.22
60611;BME280;46439;51.164;13.572;2022-09-12T09:39:30;100251.77;;;18.78;90.21
60611;BME280;46439;51.164;13.572;2022-09-12T09:42:15;100247.93;;;18.81;90.24
60611;BME280;46439;51.164;13.572;2022-09-12T09:44:46;100248.80;;;18.88;90.21
60611;BME280;46439;51.164;13.572;2022-09-12T09:47:18;100244.16;;;18.92;90.28
60611;BME280;46439;51.164;13.572;2022-09-12T09:49:46;100247.52;;;19.01;90.39
60611;BME280;46439;51.164;13.572;2022-09-12T09:52:18;100247.56;;;19.08;90.46
60611;BME280;46439;51.164;13.572;2022-09-12T09:54:50;100243.40;;;19.11;90.41
60611;BME280;46439;51.164;13.572;2022-09-12T09:57:41;100240.60;;;19.18;90.30
60611;BME280;46439;51.164;13.572;2022-09-12T10:00:28;100239.05;;;19.23;90.29
60611;BME280;46439;51.164;13.572;2022-09-12T10:03:02;100238.52;;;19.27;90.30
60611;BME280;46439;51.164;13.572;2022-09-12T10:05:34;100232.77;;;19.31;90.48
60611;BME280;46439;51.164;13.572;2022-09-12T10:08:07;100234.22;;;19.41;90.53
60611;BME280;46439;51.164;13.572;2022-09-12T10:10:35;100231.10;;;19.50;90.67
60611;BME280;46439;51.164;13.572;2022-09-12T10:13:23;100233.61;;;19.51;90.56
60611;BME280;46439;51.164;13.572;2022-09-12T10:16:01;100230.23;;;19.58;90.55
60611;BME280;46439;51.164;13.572;2022-09-12T10:18:39;100232.35;;;19.63;90.52
60611;BME280;46439;51.164;13.572;2022-09-12T10:21:28;100227.80;;;19.67;90.48
60611;BME280;46439;51.164;13.572;2022-09-12T10:24:02;100229.25;;;19.72;90.44
60611;BME280;46439;51.164;13.572;2022-09-12T10:26:40;100227.81;;;19.76;90.41
60611;BME280;46439;51.164;13.572;2022-09-12T10:29:15;100228.59;;;19.83;90.43
60611;BME280;46439;51.164;13.572;2022-09-12T10:31:48;100227.27;;;19.85;90.41
60611;BME280;46439;51.164;13.572;2022-09-12T10:34:33;100224.67;;;19.92;90.40
60611;BME280;46439;51.164;13.572;2022-09-12T10:37:05;100226.73;;;20.04;90.53
60611;BME280;46439;51.164;13.572;2022-09-12T10:39:34;100223.07;;;20.15;90.62
60611;BME280;46439;51.164;13.572;2022-09-12T10:42:05;100224.15;;;20.26;90.79
60611;BME280;46439;51.164;13.572;2022-09-12T10:44:37;100218.48;;;20.37;90.93
60611;BME280;46439;51.164;13.572;2022-09-12T10:47:22;100221.77;;;20.45;90.82
60611;BME280;46439;51.164;13.572;2022-09-12T10:49:51;100218.48;;;20.52;90.75
60611;BME280;46439;51.164;13.572;2022-09-12T10:52:22;100213.31;;;20.58;90.60
60611;BME280;46439;51.164;13.572;2022-09-12T10:54:51;100211.20;;;20.62;90.45
60611;BME280;46439;51.164;13.572;2022-09-12T10:57:48;100206.73;;;20.64;90.43
60611;BME280;46439;51.164;13.572;2022-09-12T11:00:21;100201.65;;;20.68;90.29
60611;BME280;46439;51.164;13.572;2022-09-12T11:03:08;100196.34;;;20.76;90.29
60611;BME280;46439;51.164;13.572;2022-09-12T11:05:59;100194.02;;;20.80;90.25
60611;BME280;46439;51.164;13.572;2022-09-12T11:08:50;100198.17;;;20.86;90.13
60611;BME280;46439;51.164;13.572;2022-09-12T11:11:37;100197.65;;;20.98;90.18
60611;BME280;46439;51.164;13.572;2022-09-12T11:14:16;100190.52;;;21.11;90.23
60611;BME280;46439;51.164;13.572;2022-09-12T11:16:54;100190.64;;;21.17;90.30
60611;BME280;46439;51.164;13.572;2022-09-12T11:19:37;100192.45;;;21.13;90.07
60611;BME280;46439;51.164;13.572;2022-09-12T11:22:23;100193.21;;;21.06;89.64
60611;BME280;46439;51.164;13.572;2022-09-12T11:25:11;100193.02;;;21.03;89.47
60611;BME280;46439;51.164;13.572;2022-09-12T11:27:54;100191.04;;;20.99;89.29
60611;BME280;46439;51.164;13.572;2022-09-12T11:30:35;100193.21;;;20.98;89.36
60611;BME280;46439;51.164;13.572;2022-09-12T11:33:13;100190.02;;;20.98;89.30
60611;BME280;46439;51.164;13.572;2022-09-12T11:35:51;100193.20;;;21.06;89.37
60611;BME280;46439;51.164;13.572;2022-09-12T11:38:42;100187.30;;;21.15;89.40
60611;BME280;46439;51.164;13.572;2022-09-12T11:41:22;100186.16;;;21.26;89.49
60611;BME280;46439;51.164;13.572;2022-09-12T11:43:56;100186.84;;;21.36;89.49
60611;BME280;46439;51.164;13.572;2022-09-12T11:46:30;100185.61;;;21.47;89.53
60611;BME280;46439;51.164;13.572;2022-09-12T11:49:05;100186.98;;;21.56;89.38
60611;BME280;46439;51.164;13.572;2022-09-12T11:51:47;100189.08;;;21.57;89.26
60611;BME280;46439;51.164;13.572;2022-09-12T11:54:21;100190.63;;;21.46;88.64
60611;BME280;46439;51.164;13.572;2022-09-12T11:56:57;100191.81;;;21.34;88.20
60611;BME280;46439;51.164;13.572;2022-09-12T11:59:35;100194.02;;;21.19;87.86
60611;BME280;46439;51.164;13.572;2022-09-12T12:02:12;100191.21;;;21.05;87.57
60611;BME280;46439;51.164;13.572;2022-09-12T12:04:55;100188.56;;;20.91;87.21
60611;BME280;46439;51.164;13.572;2022-09-12T12:07:26;100186.73;;;20.83;87.17
60611;BME280;46439;51.164;13.572;2022-09-12T12:09:56;100182.02;;;20.83;87.10
60611;BME280;46439;51.164;13.572;2022-09-12T12:12:27;100185.98;;;20.86;87.32
60611;BME280;46439;51.164;13.572;2022-09-12T12:14:56;100188.61;;;20.94;87.76
60611;BME280;46439;51.164;13.572;2022-09-12T12:17:26;100183.87;;;21.01;87.83
60611;BME280;46439;51.164;13.572;2022-09-12T12:20:02;100184.98;;;21.02;87.68
60611;BME280;46439;51.164;13.572;2022-09-12T12:22:31;100181.20;;;21.07;87.72
60611;BME280;46439;51.164;13.572;2022-09-12T12:25:35;100182.27;;;21.05;87.49
60611;BME280;46439;51.164;13.572;2022-09-12T12:28:06;100176.48;;;20.90;87.09
60611;BME280;46439;51.164;13.572;2022-09-12T12:31:00;100171.41;;;20.87;86.81
60611;BME280;46439;51.164;13.572;2022-09-12T12:33:57;100167.94;;;20.95;87.16
60611;BME280;46439;51.164;13.572;2022-09-12T12:36:35;100164.05;;;21.03;87.56
60611;BME280;46439;51.164;13.572;2022-09-12T12:42:05;100157.45;;;21.02;86.96
60611;BME280;46439;51.164;13.572;2022-09-12T12:44:53;100159.94;;;20.95;86.63
60611;BME280;46439;51.164;13.572;2022-09-12T12:47:23;100159.59;;;20.92;86.44
60611;BME280;46439;51.164;13.572;2022-09-12T12:49:58;100155.08;;;20.99;86.77
60611;BME280;46439;51.164;13.572;2022-09-12T12:52:29;100155.75;;;21.13;87.23
60611;BME280;46439;51.164;13.572;2022-09-12T12:54:59;100150.70;;;21.27;87.45
60611;BME280;46439;51.164;13.572;2022-09-12T12:57:31;100144.86;;;21.46;87.85
60611;BME280;46439;51.164;13.572;2022-09-12T13:00:07;100143.57;;;21.64;87.94
60611;BME280;46439;51.164;13.572;2022-09-12T13:02:54;100145.34;;;21.84;88.10
60611;BME280;46439;51.164;13.572;2022-09-12T13:05:26;100140.52;;;21.95;87.94
60611;BME280;46439;51.164;13.572;2022-09-12T13:07:54;100134.81;;;22.03;87.85
60611;BME280;46439;51.164;13.572;2022-09-12T13:10:28;100131.69;;;22.10;87.60
60611;BME280;46439;51.164;13.572;2022-09-12T13:13:00;100125.05;;;22.00;87.20
60611;BME280;46439;51.164;13.572;2022-09-12T13:15:51;100124.73;;;22.01;86.93
60611;BME280;46439;51.164;13.572;2022-09-12T13:18:24;100125.85;;;22.06;87.10
60611;BME280;46439;51.164;13.572;2022-09-12T13:21:01;100123.42;;;22.09;86.93
60611;BME280;46439;51.164;13.572;2022-09-12T13:23:34;100120.29;;;22.05;86.81